Time;durP1;ratioP1;P1;durP2;ratioP2;P2;SDS_P1;SDS_P2;PMS_P1;PMS_P2;Temp;Humidity;BMP_temperature;BMP_pressure;BME280_temperature;BME280_humidity;BME280_pressure;Samples;Min_cycle;Max_cycle;Signal;HPM_P1;HPM_P2
2021/11/27 00:00:25;;;;;;;;;4.25;3.00;;;;;7.77;61.98;98475.34;5006851;28;46139;-41
2021/11/27 00:02:50;;;;;;;;;2.75;2.00;;;;;7.78;62.24;98472.66;5006873;28;45250;-42
2021/11/27 00:05:17;;;;;;;;;2.50;2.50;;;;;7.77;62.28;98470.97;5006717;28;45285;-41
2021/11/27 00:07:43;;;;;;;;;2.00;2.00;;;;;7.74;62.27;98459.78;5009131;28;45364;-40
2021/11/27 00:10:11;;;;;;;;;4.50;4.25;;;;;7.77;62.34;98467.50;5010331;28;46423;-42
2021/11/27 00:12:37;;;;;;;;;2.50;1.50;;;;;7.76;62.25;98464.03;4999453;28;45328;-41
2021/11/27 00:15:04;;;;;;;;;3.00;3.00;;;;;7.73;62.16;98458.91;4998470;28;45273;-42
2021/11/27 00:17:29;;;;;;;;;6.00;4.00;;;;;7.75;62.44;98464.94;4999461;28;45294;-43
2021/11/27 00:19:54;;;;;;;;;6.50;4.25;;;;;7.69;62.11;98453.88;4999509;28;45169;-42
2021/11/27 00:22:20;;;;;;;;;4.00;3.00;;;;;7.72;62.25;98458.97;4998202;28;45374;-41
2021/11/27 00:24:46;;;;;;;;;2.00;2.00;;;;;7.72;62.00;98454.63;4998547;28;45383;-41
2021/11/27 00:27:11;;;;;;;;;5.25;3.75;;;;;7.72;62.13;98457.25;4998582;28;45646;-41
2021/11/27 00:29:37;;;;;;;;;3.00;3.00;;;;;7.72;62.17;98464.22;4998161;28;46006;-41
2021/11/27 00:32:03;;;;;;;;;1.00;1.00;;;;;7.70;61.93;98464.28;4998839;28;45441;-41
2021/11/27 00:34:28;;;;;;;;;3.50;1.00;;;;;7.70;62.08;98460.78;4997537;28;45479;-41
2021/11/27 00:36:53;;;;;;;;;5.50;4.75;;;;;7.69;62.07;98467.78;5013669;28;45678;-41
2021/11/27 00:39:21;;;;;;;;;3.00;3.00;;;;;7.66;62.24;98462.69;4998670;28;46006;-41
2021/11/27 00:41:47;;;;;;;;;2.75;2.75;;;;;7.66;61.88;98460.09;4998954;28;45240;-41
2021/11/27 00:44:12;;;;;;;;;4.50;4.50;;;;;7.65;61.87;98468.84;4999151;28;45521;-41
2021/11/27 00:46:38;;;;;;;;;4.00;2.75;;;;;7.64;62.12;98461.91;4985985;28;45234;-41
2021/11/27 00:49:04;;;;;;;;;4.00;2.00;;;;;7.62;62.15;98450.63;4999229;28;45274;-43
2021/11/27 00:51:29;;;;;;;;;3.50;2.25;;;;;7.59;61.75;98450.78;4999127;28;45229;-41
2021/11/27 00:53:55;;;;;;;;;3.50;2.75;;;;;7.57;61.95;98442.13;4997720;28;45347;-42
2021/11/27 00:56:21;;;;;;;;;3.00;3.00;;;;;7.55;62.11;98449.19;5000050;28;45281;-41
2021/11/27 00:58:47;;;;;;;;;4.25;3.00;;;;;7.51;61.94;98450.19;5002133;28;45417;-42
2021/11/27 01:01:25;;;;;;;;;1.75;1.75;;;;;7.47;61.78;98458.16;5002103;28;45450;-41
2021/11/27 01:03:52;;;;;;;;;2.75;1.75;;;;;7.48;62.02;98459.00;4997997;28;45415;-41
2021/11/27 01:06:21;;;;;;;;;4.00;2.00;;;;;7.46;61.86;98461.69;4999718;28;45503;-41
2021/11/27 01:08:50;;;;;;;;;3.50;2.00;;;;;7.45;61.84;98459.97;5002247;28;46208;-41
2021/11/27 01:11:34;;;;;;;;;1.75;1.75;;;;;7.42;61.71;98467.94;5002141;28;45312;-41
2021/11/27 01:14:04;;;;;;;;;3.50;2.00;;;;;7.40;61.87;98459.31;5002254;28;45331;-42
2021/11/27 01:16:33;;;;;;;;;4.75;2.00;;;;;7.37;61.70;98462.03;5002227;28;45539;-41
2021/11/27 01:18:59;;;;;;;;;3.00;2.75;;;;;7.33;61.60;98460.44;5001882;28;46250;-41
2021/11/27 01:21:27;;;;;;;;;3.00;3.00;;;;;7.34;61.81;98464.75;5002163;28;45216;-43
2021/11/27 01:23:58;;;;;;;;;6.25;2.00;;;;;7.29;61.67;98453.63;5000770;28;45448;-41
2021/11/27 01:26:24;;;;;;;;;2.00;0.00;;;;;7.23;61.89;98454.72;5002277;28;45316;-43
2021/11/27 01:28:50;;;;;;;;;2.25;2.00;;;;;7.21;61.75;98440.84;5001604;28;46268;-40
2021/11/27 01:31:15;;;;;;;;;1.75;1.75;;;;;7.20;61.58;98438.31;5002242;28;45300;-41
2021/11/27 01:33:41;;;;;;;;;2.75;2.00;;;;;7.19;61.76;98428.75;5001896;28;45292;-41
2021/11/27 01:36:07;;;;;;;;;5.00;1.00;;;;;7.19;61.53;98424.38;5001731;28;45545;-41
2021/11/27 01:38:33;;;;;;;;;1.75;1.00;;;;;7.18;61.45;98434.88;5001745;28;45949;-42
2021/11/27 01:41:00;;;;;;;;;0.00;0.00;;;;;7.16;61.04;98432.34;5001949;28;45486;-42
2021/11/27 01:43:27;;;;;;;;;1.25;1.00;;;;;7.12;61.19;98434.22;5001590;28;45248;-42
2021/11/27 01:45:53;;;;;;;;;0.75;0.75;;;;;7.07;61.09;98436.13;4992643;28;45353;-42
2021/11/27 01:48:21;;;;;;;;;1.00;1.00;;;;;7.05;61.31;98430.09;4997550;28;45920;-41
2021/11/27 01:50:58;;;;;;;;;3.25;1.00;;;;;7.01;61.02;98444.19;5001865;28;45506;-41
2021/11/27 01:53:25;;;;;;;;;1.00;1.00;;;;;6.96;60.95;98441.75;5001608;28;45161;-41
2021/11/27 01:55:55;;;;;;;;;1.50;0.00;;;;;6.93;61.32;98431.41;5000570;28;45344;-41
2021/11/27 01:58:21;;;;;;;;;1.25;0.50;;;;;6.90;61.23;98436.75;4999694;28;45359;-41
2021/11/27 02:00:51;;;;;;;;;1.00;0.25;;;;;6.87;61.11;98439.47;5001603;28;45697;-41
2021/11/27 02:03:17;;;;;;;;;2.75;1.00;;;;;6.81;61.11;98453.59;5001132;28;45317;-41
2021/11/27 02:05:43;;;;;;;;;3.75;2.75;;;;;6.78;61.12;98440.66;5001618;28;45327;-41
2021/11/27 02:08:08;;;;;;;;;1.00;1.00;;;;;6.71;61.31;98436.53;5000401;28;45440;-41
2021/11/27 02:10:34;;;;;;;;;2.75;2.75;;;;;6.72;61.31;98445.25;5001373;28;45368;-41
2021/11/27 02:12:59;;;;;;;;;2.25;2.00;;;;;6.67;61.12;98430.56;5000030;28;45374;-41
2021/11/27 02:15:25;;;;;;;;;1.50;1.50;;;;;6.65;61.17;98427.19;5001475;28;45462;-41
2021/11/27 02:17:51;;;;;;;;;2.00;2.00;;;;;6.61;61.33;98436.00;5001194;28;46523;-46
2021/11/27 02:20:17;;;;;;;;;2.00;2.00;;;;;6.58;61.31;98441.34;5000036;28;45265;-42
2021/11/27 02:22:42;;;;;;;;;2.00;2.00;;;;;6.54;61.50;98441.50;5001423;28;45229;-41
2021/11/27 02:25:16;;;;;;;;;2.00;2.00;;;;;6.49;61.48;98431.22;5001180;28;45174;-41
2021/11/27 02:27:47;;;;;;;;;1.50;1.50;;;;;6.47;61.22;98433.88;4989085;28;45272;-43
2021/11/27 02:30:16;;;;;;;;;1.25;1.25;;;;;6.43;61.33;98434.06;4999705;28;45450;-41
2021/11/27 02:32:41;;;;;;;;;1.00;0.75;;;;;6.40;61.51;98427.19;5001250;28;45347;-41
2021/11/27 02:35:08;;;;;;;;;2.00;1.00;;;;;6.35;61.33;98421.25;5000887;28;45366;-41
2021/11/27 02:37:33;;;;;;;;;2.75;0.25;;;;;6.30;61.48;98423.16;5001198;28;45236;-45
2021/11/27 02:39:59;;;;;;;;;2.00;0.75;;;;;6.31;61.41;98424.88;4998711;28;45275;-41
2021/11/27 02:42:25;;;;;;;;;0.00;0.00;;;;;6.27;61.58;98420.66;5001053;28;45395;-41
2021/11/27 02:44:51;;;;;;;;;0.50;0.50;;;;;6.25;61.43;98419.84;4998269;28;45367;-42
2021/11/27 02:47:16;;;;;;;;;0.00;0.00;;;;;6.22;61.57;98412.16;4988636;28;46272;-43
2021/11/27 02:49:42;;;;;;;;;1.50;1.00;;;;;6.21;61.45;98411.28;5000701;28;45202;-42
2021/11/27 02:52:07;;;;;;;;;3.75;0.75;;;;;6.16;61.45;98414.06;5001162;28;45364;-43
2021/11/27 02:54:33;;;;;;;;;0.75;0.75;;;;;6.13;61.29;98427.19;5000426;28;45499;-52
2021/11/27 02:56:59;;;;;;;;;2.00;1.00;;;;;6.08;61.22;98417.81;5000711;28;45394;-42
2021/11/27 02:59:28;;;;;;;;;0.00;0.00;;;;;6.06;61.30;98412.63;5000364;28;46889;-42
2021/11/27 03:01:56;;;;;;;;;0.00;0.00;;;;;6.04;61.20;98398.81;4999527;28;45261;-46
2021/11/27 03:04:23;;;;;;;;;1.00;1.00;;;;;6.00;61.34;98397.22;5000396;28;45518;-41
2021/11/27 03:06:48;;;;;;;;;1.50;1.00;;;;;5.96;61.09;98399.03;5000689;28;45363;-41
2021/11/27 03:09:16;;;;;;;;;1.00;0.75;;;;;5.95;61.11;98388.63;5000293;28;45397;-42
2021/11/27 03:11:49;;;;;;;;;1.25;0.50;;;;;5.94;61.24;98384.34;5000569;28;45395;-41
2021/11/27 03:14:14;;;;;;;;;1.25;1.00;;;;;5.88;61.12;98381.94;5000412;28;45958;-42
2021/11/27 03:16:40;;;;;;;;;0.50;0.25;;;;;5.85;61.34;98373.31;5000378;28;45774;-41
2021/11/27 03:19:06;;;;;;;;;2.00;2.00;;;;;5.86;61.03;98375.03;5000156;28;45408;-45
2021/11/27 03:21:31;;;;;;;;;0.00;0.00;;;;;5.81;61.35;98370.84;5000556;28;45263;-42
2021/11/27 03:23:58;;;;;;;;;1.00;1.00;;;;;5.77;61.42;98369.25;5000114;28;45403;-41
2021/11/27 03:26:23;;;;;;;;;0.75;0.00;;;;;5.78;61.07;98378.78;5000378;28;45248;-41
2021/11/27 03:28:49;;;;;;;;;2.00;0.00;;;;;5.76;61.23;98384.03;5000005;28;45348;-41
2021/11/27 03:31:15;;;;;;;;;1.00;1.00;;;;;5.75;61.16;98376.25;5000460;28;45283;-41
2021/11/27 03:33:41;;;;;;;;;1.25;1.00;;;;;5.74;61.28;98383.22;5000203;28;45411;-41
2021/11/27 03:36:07;;;;;;;;;1.00;1.00;;;;;5.72;61.21;98366.78;5000138;28;46552;-41
2021/11/27 03:38:34;;;;;;;;;3.00;1.00;;;;;5.69;61.29;98367.72;5000026;28;45279;-41
2021/11/27 03:41:00;;;;;;;;;1.25;1.25;;;;;5.69;61.33;98364.28;4999985;28;45277;-42
2021/11/27 03:43:25;;;;;;;;;0.75;0.75;;;;;5.68;61.25;98365.19;4999729;28;45343;-41
2021/11/27 03:45:51;;;;;;;;;1.00;0.00;;;;;5.61;61.24;98361.94;4990987;28;46206;-42
2021/11/27 03:48:25;;;;;;;;;0.50;0.50;;;;;5.61;60.96;98364.53;4995795;28;45319;-43
2021/11/27 03:50:52;;;;;;;;;0.75;0.00;;;;;5.60;61.12;98367.19;5015467;28;45356;-41
2021/11/27 03:53:34;;;;;;;;;2.50;1.00;;;;;5.54;61.46;98360.41;4999764;28;45236;-41
2021/11/27 03:56:02;;;;;;;;;2.00;0.50;;;;;5.52;61.47;98357.00;4999790;28;45285;-41
2021/11/27 03:58:28;;;;;;;;;2.00;1.00;;;;;5.49;61.49;98359.72;4999367;28;45296;-41
2021/11/27 04:00:55;;;;;;;;;3.00;1.00;;;;;5.45;61.36;98358.09;4999815;28;45387;-42
2021/11/27 04:03:23;;;;;;;;;1.75;0.75;;;;;5.43;61.35;98355.53;4999925;28;45873;-41
2021/11/27 04:05:54;;;;;;;;;0.00;0.00;;;;;5.40;61.27;98349.59;4999519;28;46022;-41
2021/11/27 04:08:20;;;;;;;;;1.00;0.00;;;;;5.38;61.27;98360.03;4999959;28;45342;-41
2021/11/27 04:10:47;;;;;;;;;0.00;0.00;;;;;5.31;61.29;98341.16;4999693;28;45344;-41
2021/11/27 04:13:13;;;;;;;;;1.00;1.00;;;;;5.31;61.50;98343.75;4999789;28;45642;-41
2021/11/27 04:15:38;;;;;;;;;0.75;0.75;;;;;5.27;61.33;98349.97;4998239;28;48831;-42
2021/11/27 04:18:04;;;;;;;;;1.25;1.00;;;;;5.21;61.35;98344.94;4999772;28;45296;-42
2021/11/27 04:20:30;;;;;;;;;1.25;0.00;;;;;5.16;61.51;98347.69;4999726;28;45348;-41
2021/11/27 04:22:56;;;;;;;;;1.00;0.25;;;;;5.12;61.45;98347.81;5015016;28;45588;-42
2021/11/27 04:25:22;;;;;;;;;2.00;0.00;;;;;5.08;61.65;98343.59;4999329;28;46315;-42
2021/11/27 04:27:47;;;;;;;;;0.00;0.00;;;;;4.95;61.79;98325.75;5014808;28;45439;-42
2021/11/27 04:30:16;;;;;;;;;0.00;0.00;;;;;4.95;61.58;98320.53;4999747;28;45262;-43
2021/11/27 04:32:44;;;;;;;;;0.25;0.25;;;;;4.96;61.29;98321.41;5002513;28;45430;-41
2021/11/27 04:35:09;;;;;;;;;0.00;0.00;;;;;4.91;61.46;98318.94;5002669;28;46357;-42
2021/11/27 04:37:34;;;;;;;;;2.00;0.00;;;;;4.88;61.78;98312.06;4998358;28;45902;-42
2021/11/27 04:40:00;;;;;;;;;1.00;0.00;;;;;4.85;61.65;98311.31;4999262;28;45608;-42
2021/11/27 04:42:26;;;;;;;;;2.00;0.00;;;;;4.84;61.51;98310.47;5002712;28;45387;-42
2021/11/27 04:44:51;;;;;;;;;2.00;1.00;;;;;4.78;61.71;98314.97;5000389;28;47181;-42
2021/11/27 04:47:16;;;;;;;;;2.50;1.00;;;;;4.79;61.74;98325.38;4990267;28;45461;-41
2021/11/27 04:49:42;;;;;;;;;1.00;1.00;;;;;4.73;61.56;98322.94;5002855;28;45389;-42
2021/11/27 04:52:08;;;;;;;;;1.00;0.25;;;;;4.74;61.60;98329.81;5002721;28;45196;-41
2021/11/27 04:54:34;;;;;;;;;0.00;0.00;;;;;4.62;61.80;98306.78;5002267;28;45332;-41
2021/11/27 04:57:00;;;;;;;;;2.25;0.00;;;;;4.69;61.68;98321.28;5002241;28;45340;-41
2021/11/27 04:59:26;;;;;;;;;2.00;1.00;;;;;4.68;61.67;98323.06;5002168;28;45230;-41
2021/11/27 05:01:52;;;;;;;;;2.00;1.00;;;;;4.64;61.36;98339.66;5002365;28;45245;-40
2021/11/27 05:04:18;;;;;;;;;0.50;0.50;;;;;4.63;61.63;98334.47;5017459;28;45967;-41
2021/11/27 05:06:43;;;;;;;;;0.25;0.25;;;;;4.56;61.90;98321.63;5002578;28;45369;-41
2021/11/27 05:09:10;;;;;;;;;0.25;0.25;;;;;4.57;61.94;98327.72;5002396;28;45308;-41
2021/11/27 05:11:35;;;;;;;;;0.00;0.00;;;;;4.52;62.22;98329.59;5002224;28;45177;-40
2021/11/27 05:14:01;;;;;;;;;0.50;0.50;;;;;4.54;61.87;98339.06;5002086;28;45418;-40
2021/11/27 05:16:26;;;;;;;;;1.00;1.00;;;;;4.49;61.88;98324.47;5002489;28;45382;-40
2021/11/27 05:18:53;;;;;;;;;0.00;0.00;;;;;4.45;61.89;98334.09;5002392;28;45269;-40
2021/11/27 05:21:18;;;;;;;;;0.50;0.50;;;;;4.47;62.08;98329.72;5002391;28;45240;-40
2021/11/27 05:23:44;;;;;;;;;1.25;0.00;;;;;4.49;61.95;98327.94;5001759;28;47225;-40
2021/11/27 05:26:10;;;;;;;;;2.00;1.00;;;;;4.47;61.89;98327.13;5002399;28;45313;-40
2021/11/27 05:28:36;;;;;;;;;1.25;0.00;;;;;4.44;61.81;98315.94;5002036;28;45423;-41
2021/11/27 05:31:02;;;;;;;;;4.00;1.50;;;;;4.44;61.93;98308.13;5002286;28;45415;-41
2021/11/27 05:36:15;;;;;;;;;1.50;1.00;;;;;4.39;62.01;98287.47;5002141;28;45222;-42
2021/11/27 05:38:41;;;;;;;;;1.25;1.00;;;;;4.39;62.12;98284.88;5001787;28;45356;-41
2021/11/27 05:41:06;;;;;;;;;1.75;1.00;;;;;4.39;61.70;98283.13;4983866;28;45361;-41
2021/11/27 05:43:33;;;;;;;;;1.00;1.00;;;;;4.35;62.03;98275.44;4999527;28;47123;-41
2021/11/27 05:45:58;;;;;;;;;1.75;1.00;;;;;4.34;61.98;98273.72;4991698;28;45454;-41
2021/11/27 05:48:23;;;;;;;;;2.00;2.00;;;;;4.33;62.13;98265.09;4998574;28;45200;-41
2021/11/27 05:50:49;;;;;;;;;0.00;0.00;;;;;4.34;62.31;98269.41;5001727;28;45791;-41
2021/11/27 05:53:18;;;;;;;;;0.00;0.00;;;;;4.38;62.29;98270.16;5000225;28;45938;-41
2021/11/27 05:55:46;;;;;;;;;2.00;1.00;;;;;4.38;62.17;98265.81;5001588;28;45317;-41
2021/11/27 05:58:11;;;;;;;;;1.00;1.00;;;;;4.38;62.29;98270.16;5001066;28;45479;-41
2021/11/27 06:00:37;;;;;;;;;0.00;0.00;;;;;4.40;62.05;98276.16;5001855;28;45312;-41
2021/11/27 06:03:02;;;;;;;;;0.75;0.75;;;;;4.42;61.91;98287.38;5001229;28;45421;-43
2021/11/27 06:05:29;;;;;;;;;1.25;1.25;;;;;4.41;62.07;98272.66;4997096;28;45823;-40
2021/11/27 06:07:55;;;;;;;;;1.25;1.00;;;;;4.41;61.99;98282.22;4998212;28;45228;-40
2021/11/27 06:10:21;;;;;;;;;1.00;1.00;;;;;4.40;61.72;98278.75;5016495;28;45590;-40
2021/11/27 06:12:46;;;;;;;;;1.75;1.75;;;;;4.35;62.23;98278.91;5000985;28;46264;-41
2021/11/27 06:15:12;;;;;;;;;7.25;7.25;;;;;4.39;61.92;98290.91;5001598;28;45198;-40
2021/11/27 06:17:38;;;;;;;;;1.75;1.75;;;;;4.39;61.96;98285.72;5001345;28;45378;-41
2021/11/27 06:20:04;;;;;;;;;0.00;0.00;;;;;4.43;62.24;98283.88;5001343;28;45446;-42
2021/11/27 06:22:29;;;;;;;;;1.00;1.00;;;;;4.46;62.13;98269.94;5000951;28;45432;-42
2021/11/27 06:24:54;;;;;;;;;1.00;1.00;;;;;4.43;62.15;98288.22;5000994;28;45399;-40
2021/11/27 06:27:20;;;;;;;;;1.25;1.00;;;;;4.45;62.17;98276.03;5000899;28;45305;-43
2021/11/27 06:29:45;;;;;;;;;1.75;1.00;;;;;4.46;62.41;98277.75;5001364;28;45339;-42
2021/11/27 06:32:11;;;;;;;;;0.00;0.00;;;;;4.44;62.04;98261.31;5001136;28;45427;-42
2021/11/27 06:34:38;;;;;;;;;1.25;1.25;;;;;4.42;62.31;98263.13;5000990;28;45324;-42
2021/11/27 06:37:04;;;;;;;;;1.00;1.00;;;;;4.41;62.64;98266.63;5001004;28;45238;-40
2021/11/27 06:39:29;;;;;;;;;2.00;2.00;;;;;4.47;62.09;98269.88;5000875;28;45419;-40
2021/11/27 06:41:56;;;;;;;;;2.25;1.00;;;;;4.50;62.42;98280.22;5000378;28;45337;-41
2021/11/27 06:44:21;;;;;;;;;3.25;1.75;;;;;4.48;62.22;98253.41;5000684;28;45416;-41
2021/11/27 06:46:47;;;;;;;;;2.00;1.00;;;;;4.50;62.28;98269.81;4987421;28;45206;-41
2021/11/27 06:49:14;;;;;;;;;3.25;1.00;;;;;4.49;62.27;98268.13;5000909;28;45238;-41
2021/11/27 06:51:39;;;;;;;;;3.25;1.00;;;;;4.51;62.61;98261.09;5000612;28;46171;-42
2021/11/27 06:54:04;;;;;;;;;2.00;1.00;;;;;4.51;62.33;98252.44;4999939;28;45414;-41
2021/11/27 06:56:30;;;;;;;;;1.00;1.00;;;;;4.50;62.46;98254.22;5000802;28;45311;-40
2021/11/27 06:58:55;;;;;;;;;2.75;2.75;;;;;4.51;62.14;98252.44;5000016;28;45309;-43
2021/11/27 07:01:20;;;;;;;;;1.00;1.00;;;;;4.50;62.35;98259.41;5015580;28;47372;-41
2021/11/27 07:03:46;;;;;;;;;3.75;3.00;;;;;4.53;62.23;98264.50;5000514;28;45396;-40
2021/11/27 07:06:11;;;;;;;;;2.00;2.00;;;;;4.53;62.30;98264.50;4999197;28;45292;-42
2021/11/27 07:08:36;;;;;;;;;2.00;1.00;;;;;4.56;62.08;98260.97;5000535;28;45401;-42
2021/11/27 07:11:02;;;;;;;;;1.00;1.00;;;;;4.55;62.39;98269.66;5000092;28;46688;-42
2021/11/27 07:13:27;;;;;;;;;2.00;0.50;;;;;4.53;62.49;98272.31;5000001;28;45387;-42
2021/11/27 07:15:52;;;;;;;;;0.00;0.00;;;;;4.57;62.31;98257.47;5000352;28;45360;-42
2021/11/27 07:18:18;;;;;;;;;1.50;1.00;;;;;4.55;62.59;98267.06;5000456;28;45482;-41
2021/11/27 07:20:43;;;;;;;;;0.00;0.00;;;;;4.54;62.71;98273.16;5004884;28;46586;-43
2021/11/27 07:23:09;;;;;;;;;0.75;0.75;;;;;4.49;62.91;98252.50;5002593;28;45303;-41
2021/11/27 07:25:36;;;;;;;;;1.50;1.50;;;;;4.49;62.98;98247.31;4999696;28;45273;-39
2021/11/27 07:28:01;;;;;;;;;2.00;1.00;;;;;4.44;62.75;98264.78;5000040;28;45244;-39
2021/11/27 07:30:27;;;;;;;;;1.25;1.25;;;;;4.46;62.76;98257.78;4999872;28;45910;-39
2021/11/27 07:32:52;;;;;;;;;0.00;0.00;;;;;4.45;62.99;98269.06;5002748;28;45359;-39
2021/11/27 07:35:17;;;;;;;;;1.00;1.00;;;;;4.40;63.14;98263.16;5000370;28;45178;-39
2021/11/27 07:37:43;;;;;;;;;0.50;0.50;;;;;4.43;62.95;98267.41;5000307;28;45352;-44
2021/11/27 07:40:08;;;;;;;;;2.00;2.00;;;;;4.36;62.89;98277.16;4999627;28;46033;-39
2021/11/27 07:42:34;;;;;;;;;2.00;2.00;;;;;4.37;63.04;98269.28;4998044;28;45382;-41
2021/11/27 07:44:59;;;;;;;;;2.00;0.25;;;;;4.36;63.18;98274.53;4997949;28;45372;-43
2021/11/27 07:47:24;;;;;;;;;1.25;1.25;;;;;4.30;63.07;98273.00;5003744;28;45384;-42
2021/11/27 07:49:50;;;;;;;;;2.00;2.00;;;;;4.29;63.37;98276.47;4999430;28;46059;-43
2021/11/27 07:52:17;;;;;;;;;1.00;1.00;;;;;4.29;63.10;98280.81;4999824;28;45374;-41
2021/11/27 07:54:42;;;;;;;;;7.25;4.75;;;;;4.28;63.07;98247.94;4999627;28;45369;-40
2021/11/27 07:57:08;;;;;;;;;2.00;2.00;;;;;4.21;63.21;98273.22;4999693;28;45353;-39
2021/11/27 07:59:34;;;;;;;;;0.75;0.75;;;;;4.15;63.10;98271.66;4999518;28;47416;-40
2021/11/27 08:02:00;;;;;;;;;1.00;1.00;;;;;4.21;63.27;98279.28;4999851;28;45150;-41
2021/11/27 08:04:26;;;;;;;;;2.25;1.25;;;;;4.21;63.31;98273.22;4998321;28;45244;-56
2021/11/27 08:06:51;;;;;;;;;4.25;4.25;;;;;4.13;63.42;98270.84;4995215;28;45272;-39
2021/11/27 08:09:16;;;;;;;;;2.00;2.00;;;;;4.16;63.12;98269.91;5001653;28;45519;-40
2021/11/27 08:11:42;;;;;;;;;4.75;1.75;;;;;4.13;63.29;98265.63;5002847;28;45170;-39
2021/11/27 08:14:07;;;;;;;;;1.00;0.25;;;;;4.09;63.37;98269.22;5003393;28;45489;-40
2021/11/27 08:16:32;;;;;;;;;7.00;6.25;;;;;4.07;63.72;98291.81;5002294;28;45626;-40
2021/11/27 08:18:58;;;;;;;;;11.75;7.75;;;;;4.10;63.48;98276.13;5000986;28;45391;-39
2021/11/27 08:21:25;;;;;;;;;11.50;11.50;;;;;4.09;63.64;98289.16;5000617;28;45482;-39
2021/11/27 08:23:51;;;;;;;;;2.00;2.00;;;;;4.05;63.75;98276.25;4999090;28;45394;-39
2021/11/27 08:26:16;;;;;;;;;5.25;4.75;;;;;4.03;63.61;98285.81;5002633;28;45363;-40
2021/11/27 08:28:42;;;;;;;;;3.00;3.00;;;;;4.01;63.80;98281.56;5002668;28;46308;-39
2021/11/27 08:31:07;;;;;;;;;1.75;1.00;;;;;4.01;63.87;98273.78;5002769;28;45597;-40
2021/11/27 08:33:32;;;;;;;;;6.75;3.25;;;;;4.02;63.50;98278.91;5018258;28;45414;-39
2021/11/27 08:35:58;;;;;;;;;3.00;2.50;;;;;4.02;63.74;98284.13;5002681;28;45348;-40
2021/11/27 08:38:23;;;;;;;;;3.00;3.00;;;;;4.01;63.59;98289.38;5002465;28;45414;-38
2021/11/27 08:40:49;;;;;;;;;2.00;2.00;;;;;4.02;63.72;98286.72;5002536;28;45244;-37
2021/11/27 08:43:15;;;;;;;;;2.75;2.75;;;;;4.01;64.07;98289.38;5018146;28;45313;-39
2021/11/27 08:45:44;;;;;;;;;9.25;7.25;;;;;4.06;63.32;98295.28;4995289;28;45403;-39
2021/11/27 08:48:10;;;;;;;;;2.25;2.00;;;;;4.07;64.02;98289.19;4994305;28;46679;-40
2021/11/27 08:50:35;;;;;;;;;3.25;2.50;;;;;4.10;63.53;98301.25;5001418;28;45499;-39
2021/11/27 08:53:01;;;;;;;;;2.50;2.00;;;;;4.07;63.79;98294.41;5002805;28;45478;-39
2021/11/27 08:55:27;;;;;;;;;3.00;3.00;;;;;4.12;63.69;98302.94;5001958;28;45392;-39
2021/11/27 08:57:52;;;;;;;;;3.75;2.00;;;;;4.12;63.80;98294.28;5002438;28;45333;-39
2021/11/27 09:00:18;;;;;;;;;4.25;2.50;;;;;4.15;63.83;98302.84;5002413;28;45254;-42
2021/11/27 09:02:44;;;;;;;;;2.50;2.50;;;;;4.18;63.95;98314.91;5002534;28;45344;-40
2021/11/27 09:05:10;;;;;;;;;3.25;2.00;;;;;4.20;63.89;98306.19;5001276;28;45261;-39
2021/11/27 09:07:36;;;;;;;;;3.50;2.75;;;;;4.22;63.80;98312.19;4996438;28;46350;-39
2021/11/27 09:10:02;;;;;;;;;1.50;1.00;;;;;4.28;63.94;98310.34;5002150;28;45343;-39
2021/11/27 09:12:27;;;;;;;;;1.25;1.25;;;;;4.31;63.96;98310.22;5002301;28;45345;-39
2021/11/27 09:14:55;;;;;;;;;1.75;1.75;;;;;4.35;63.65;98307.50;5002024;28;45676;-39
2021/11/27 09:17:21;;;;;;;;;3.50;2.00;;;;;4.31;64.18;98308.47;5000668;28;46251;-39
2021/11/27 09:19:46;;;;;;;;;2.75;2.25;;;;;4.34;63.95;98302.34;5002109;28;45395;-39
2021/11/27 09:22:12;;;;;;;;;3.00;3.00;;;;;4.38;63.92;98309.19;5002221;28;45368;-39
2021/11/27 09:24:38;;;;;;;;;2.75;2.75;;;;;4.38;63.88;98310.00;5001960;28;45277;-40
2021/11/27 09:27:04;;;;;;;;;3.75;3.50;;;;;4.46;64.08;98317.59;5001753;28;46204;-39
2021/11/27 09:29:30;;;;;;;;;4.25;3.00;;;;;4.51;64.05;98307.06;5002051;28;45415;-40
2021/11/27 09:31:56;;;;;;;;;13.75;12.50;;;;;4.58;63.71;98312.94;5002244;28;45297;-40
2021/11/27 09:34:21;;;;;;;;;7.50;7.00;;;;;4.60;64.14;98321.56;5001799;28;45281;-40
2021/11/27 09:36:48;;;;;;;;;2.00;1.00;;;;;4.64;64.29;98311.03;5001704;28;46672;-41
2021/11/27 09:39:15;;;;;;;;;1.00;1.00;;;;;4.72;64.13;98326.44;5001814;28;45800;-43
2021/11/27 09:41:44;;;;;;;;;1.00;1.00;;;;;4.74;63.92;98319.41;5000197;28;45316;-41
2021/11/27 09:44:12;;;;;;;;;0.00;0.00;;;;;4.74;63.86;98344.59;5000333;28;45545;-41
2021/11/27 09:46:39;;;;;;;;;2.75;2.50;;;;;4.76;63.97;98333.25;4988263;28;46223;-41
2021/11/27 09:49:08;;;;;;;;;1.75;0.50;;;;;4.81;63.84;98331.34;5001604;28;45238;-41
2021/11/27 09:51:35;;;;;;;;;0.25;0.25;;;;;4.85;64.00;98335.56;5000448;28;45469;-41
2021/11/27 09:54:03;;;;;;;;;1.00;0.00;;;;;4.90;64.05;98332.00;5001521;28;45466;-41
2021/11/27 09:56:29;;;;;;;;;48.25;34.00;;;;;4.91;63.94;98337.16;5001304;28;46186;-40
2021/11/27 09:58:56;;;;;;;;;12.00;6.75;;;;;4.95;64.04;98337.91;5001356;28;45336;-40
2021/11/27 10:01:27;;;;;;;;;1.50;1.50;;;;;4.99;63.81;98352.53;5000252;28;45426;-40
2021/11/27 10:04:03;;;;;;;;;3.75;2.50;;;;;4.96;63.91;98337.03;5000338;28;45481;-40
2021/11/27 10:06:33;;;;;;;;;3.00;2.00;;;;;4.98;64.19;98348.22;5000892;28;45592;-40
2021/11/27 10:09:00;;;;;;;;;1.00;1.00;;;;;4.99;63.71;98347.31;5001180;28;45308;-40
2021/11/27 10:11:26;;;;;;;;;2.00;2.00;;;;;5.04;63.92;98342.84;5001074;28;45335;-40
2021/11/27 10:13:52;;;;;;;;;0.75;0.00;;;;;5.01;63.72;98345.53;4999600;28;45558;-40
2021/11/27 10:16:17;;;;;;;;;1.00;1.00;;;;;5.03;63.97;98348.94;5000201;28;46191;-40
2021/11/27 10:18:43;;;;;;;;;1.25;1.25;;;;;5.04;64.23;98342.84;5000503;28;45455;-40
2021/11/27 10:21:21;;;;;;;;;1.75;1.75;;;;;5.04;63.98;98348.03;5000499;28;45476;-40
2021/11/27 10:23:48;;;;;;;;;1.00;1.00;;;;;5.08;64.27;98372.25;5000014;28;45951;-44
2021/11/27 10:26:36;;;;;;;;;1.25;1.25;;;;;5.06;64.15;98361.88;5000073;28;46174;-40
2021/11/27 10:29:35;;;;;;;;;3.00;2.00;;;;;5.09;64.36;98353.13;4999827;28;45229;-40
2021/11/27 10:32:15;;;;;;;;;1.00;1.00;;;;;5.03;64.53;98352.41;5000250;28;45359;-40
2021/11/27 10:34:50;;;;;;;;;1.00;1.00;;;;;5.10;64.33;98337.44;5001059;28;45232;-40
2021/11/27 10:37:26;;;;;;;;;3.50;2.25;;;;;5.13;64.35;98347.78;5000672;28;47010;-39
2021/11/27 10:40:25;;;;;;;;;1.00;1.00;;;;;5.18;64.26;98351.09;5000744;28;45352;-42
2021/11/27 10:43:10;;;;;;;;;1.00;1.00;;;;;5.20;64.22;98348.44;4999415;28;45367;-40
2021/11/27 10:45:38;;;;;;;;;1.00;1.00;;;;;5.23;64.53;98350.94;4999336;28;45792;-39
2021/11/27 10:48:12;;;;;;;;;2.25;2.00;;;;;5.27;64.27;98349.97;5000708;28;46703;-39
2021/11/27 10:50:39;;;;;;;;;2.00;2.00;;;;;5.33;64.67;98351.50;5000648;28;45428;-39
2021/11/27 10:53:12;;;;;;;;;24.50;22.50;;;;;5.38;64.43;98349.63;5000670;28;45314;-40
2021/11/27 10:55:39;;;;;;;;;0.75;0.75;;;;;5.37;64.64;98347.91;5000482;28;45412;-39
2021/11/27 10:58:07;;;;;;;;;10.25;10.25;;;;;5.41;64.40;98344.31;4999767;28;46993;-39
2021/11/27 11:00:46;;;;;;;;;1.00;1.00;;;;;5.48;64.23;98358.84;5000677;28;45224;-39
2021/11/27 11:03:35;;;;;;;;;3.00;2.00;;;;;5.52;64.25;98352.66;5000390;28;45419;-39
2021/11/27 11:06:25;;;;;;;;;3.00;2.00;;;;;5.52;64.46;98344.84;5000324;28;45399;-40
2021/11/27 11:08:53;;;;;;;;;1.00;1.00;;;;;5.60;64.43;98357.63;5000477;28;45916;-40
2021/11/27 11:11:21;;;;;;;;;2.50;2.50;;;;;5.62;64.37;98365.38;4997797;28;45146;-39
2021/11/27 11:13:56;;;;;;;;;3.00;2.00;;;;;5.70;64.60;98361.63;4988304;28;45412;-40
2021/11/27 11:16:24;;;;;;;;;3.75;3.75;;;;;5.73;64.29;98358.06;4998830;28;45491;-40
2021/11/27 11:18:54;;;;;;;;;2.50;2.50;;;;;5.75;64.24;98353.66;4996873;28;47612;-41
2021/11/27 11:21:22;;;;;;;;;2.75;2.00;;;;;5.83;64.52;98362.06;5000055;28;45400;-40
2021/11/27 11:23:49;;;;;;;;;3.00;2.00;;;;;5.93;64.42;98359.19;4999857;28;45486;-39
2021/11/27 11:26:21;;;;;;;;;3.00;1.50;;;;;6.01;64.08;98363.25;4999893;28;45485;-40
2021/11/27 11:28:59;;;;;;;;;1.00;1.00;;;;;6.06;64.15;98370.91;5015588;28;46215;-40
2021/11/27 11:31:33;;;;;;;;;2.00;2.00;;;;;6.11;64.00;98365.56;5000196;28;45322;-39
2021/11/27 11:34:01;;;;;;;;;3.25;2.75;;;;;6.15;64.04;98365.41;5000658;28;45350;-40
2021/11/27 11:36:28;;;;;;;;;5.75;5.75;;;;;6.22;64.29;98378.25;5000922;28;45471;-40
2021/11/27 11:38:56;;;;;;;;;7.75;7.75;;;;;6.25;63.90;98367.69;5000215;28;46268;-40
2021/11/27 11:41:24;;;;;;;;;1.00;1.00;;;;;6.31;64.02;98372.69;5000549;28;45257;-41
2021/11/27 11:43:51;;;;;;;;;1.25;1.25;;;;;6.31;64.02;98388.34;5002964;28;45426;-41